createdAt,value
2022-12-22T00:00:55.336Z,80.93
2022-12-22T00:06:16.556Z,80.76
2022-12-22T00:11:38.299Z,80.73
2022-12-22T00:16:59.586Z,80.28
2022-12-22T00:22:26.248Z,80.58
2022-12-22T00:27:49.147Z,80.80
2022-12-22T00:33:10.186Z,80.84
2022-12-22T00:38:36.534Z,80.65
2022-12-22T00:43:57.765Z,80.54
2022-12-22T00:49:19.343Z,80.65
2022-12-22T00:54:41.860Z,80.63
2022-12-22T01:00:02.965Z,80.47
2022-12-22T01:05:25.375Z,80.46
2022-12-22T01:10:46.536Z,80.34
2022-12-22T01:16:08.023Z,81.22
2022-12-22T01:21:29.627Z,80.84
2022-12-22T01:26:50.953Z,80.77
2022-12-22T01:32:11.849Z,80.76
2022-12-22T01:37:32.942Z,80.90
2022-12-22T01:42:54.110Z,81.02
2022-12-22T01:48:15.407Z,81.10
2022-12-22T01:53:44.825Z,80.95
2022-12-22T01:59:10.900Z,81.05
2022-12-22T02:04:32.036Z,81.04
2022-12-22T02:10:23.923Z,80.86
2022-12-22T02:15:52.226Z,80.67
2022-12-22T02:21:17.180Z,81.21
2022-12-22T02:26:51.437Z,81.36
2022-12-22T02:32:12.404Z,81.20
2022-12-22T02:38:03.232Z,80.88
2022-12-22T02:43:52.710Z,81.10
2022-12-22T02:49:18.185Z,81.01
2022-12-22T02:54:40.653Z,81.18
2022-12-22T03:00:01.624Z,81.55
2022-12-22T03:05:24.448Z,81.23
2022-12-22T03:10:45.763Z,81.64
2022-12-22T03:16:07.128Z,81.80
2022-12-22T03:21:28.226Z,81.86
2022-12-22T03:26:31.121Z,81.07
2022-12-22T03:31:33.947Z,81.46
2022-12-22T03:36:36.681Z,80.88
2022-12-22T03:41:57.829Z,80.84
2022-12-22T03:47:00.621Z,81.49
2022-12-22T03:52:03.457Z,81.67
2022-12-22T03:57:07.585Z,81.45
2022-12-22T04:02:10.319Z,81.19
2022-12-22T04:07:13.095Z,80.77
2022-12-22T04:12:34.082Z,79.50
2022-12-22T04:17:36.810Z,78.86
2022-12-22T04:22:39.471Z,78.56
2022-12-22T04:27:42.164Z,78.73
2022-12-22T04:32:44.982Z,78.82
2022-12-22T04:37:47.680Z,78.14
2022-12-22T04:42:50.418Z,77.61
2022-12-22T04:47:53.081Z,77.02
2022-12-22T04:52:55.736Z,77.01
2022-12-22T04:57:58.408Z,75.89
2022-12-22T05:03:01.495Z,75.34
2022-12-22T05:08:04.984Z,74.19
2022-12-22T05:13:07.828Z,74.78
2022-12-22T05:18:10.563Z,74.13
2022-12-22T05:23:13.343Z,73.56
2022-12-22T05:28:16.108Z,73.51
2022-12-22T05:33:18.958Z,73.09
2022-12-22T05:38:21.583Z,73.27
2022-12-22T05:43:24.278Z,72.85
2022-12-22T05:48:32.151Z,72.66
2022-12-22T05:53:37.610Z,71.67
2022-12-22T05:58:40.357Z,71.46
2022-12-22T06:03:43.195Z,70.31
2022-12-22T06:08:46.103Z,70.91
2022-12-22T06:13:51.309Z,71.04
2022-12-22T06:18:53.963Z,71.46
2022-12-22T06:23:56.703Z,71.48
2022-12-22T06:28:59.348Z,71.21
2022-12-22T06:34:02.038Z,71.29
2022-12-22T06:39:05.511Z,70.70
2022-12-22T06:44:08.262Z,69.93
2022-12-22T06:49:10.970Z,69.34
2022-12-22T06:54:13.947Z,70.17
2022-12-22T06:59:16.796Z,71.43
2022-12-22T07:04:20.985Z,72.35
2022-12-22T07:09:23.736Z,72.35
2022-12-22T07:14:26.397Z,72.53
2022-12-22T07:19:29.189Z,72.13
2022-12-22T07:24:31.924Z,71.42
2022-12-22T07:29:36.551Z,71.69
2022-12-22T07:34:39.231Z,71.30
2022-12-22T07:39:41.901Z,71.51
2022-12-22T07:44:44.541Z,71.43
2022-12-22T07:50:05.659Z,71.15
2022-12-22T07:55:09.255Z,71.78
2022-12-22T08:00:12.488Z,71.80
2022-12-22T08:05:15.076Z,71.96
2022-12-22T08:10:19.196Z,72.45
2022-12-22T08:15:21.881Z,72.36
2022-12-22T08:20:24.579Z,72.50
2022-12-22T08:25:27.248Z,72.50
2022-12-22T08:30:30.229Z,73.29
2022-12-22T08:35:33.316Z,72.84
2022-12-22T08:40:36.164Z,72.87
2022-12-22T08:45:38.950Z,72.78
2022-12-22T08:50:41.672Z,72.54
2022-12-22T08:55:54.874Z,72.35
2022-12-22T09:00:58.230Z,71.85
2022-12-22T09:06:04.261Z,72.16
2022-12-22T09:11:06.958Z,72.21
2022-12-22T09:16:10.671Z,71.99
2022-12-22T09:21:13.285Z,72.28
2022-12-22T09:26:18.905Z,72.50
2022-12-22T09:31:23.316Z,72.48
2022-12-22T09:36:29.264Z,72.08
2022-12-22T09:41:56.536Z,72.54
2022-12-22T09:47:02.462Z,72.88
2022-12-22T09:52:05.704Z,73.02
2022-12-22T09:57:13.015Z,73.01
2022-12-22T10:02:46.099Z,73.55
2022-12-22T10:07:48.907Z,73.16
2022-12-22T10:12:52.889Z,73.78
2022-12-22T10:18:12.467Z,73.94
2022-12-22T10:23:19.427Z,73.86
2022-12-22T10:28:33.423Z,73.84
2022-12-22T10:33:41.241Z,73.44
2022-12-22T10:39:13.474Z,73.86
2022-12-22T10:44:16.091Z,73.83
2022-12-22T10:54:36.856Z,74.36
2022-12-22T10:59:55.984Z,74.51
2022-12-22T11:05:12.215Z,74.52
2022-12-22T11:10:14.955Z,74.65
2022-12-22T11:15:29.249Z,74.58
2022-12-22T11:20:50.458Z,75.05
2022-12-22T11:26:50.385Z,74.97
2022-12-22T11:32:07.990Z,75.09
2022-12-22T11:37:10.628Z,75.33
2022-12-22T11:42:33.209Z,75.11
2022-12-22T11:47:50.995Z,75.02
2022-12-22T11:53:06.930Z,74.94
2022-12-22T11:58:24.221Z,75.44
2022-12-22T12:03:50.912Z,75.11
2022-12-22T12:09:19.929Z,75.15
2022-12-22T12:15:00.954Z,75.14
2022-12-22T12:20:33.267Z,75.35
2022-12-22T12:25:57.832Z,75.38
2022-12-22T12:31:01.482Z,75.48
2022-12-22T12:36:24.925Z,75.48
2022-12-22T12:41:29.513Z,75.62
2022-12-22T12:46:44.114Z,75.28
2022-12-22T12:51:50.352Z,75.59
2022-12-22T12:56:59.262Z,75.30
2022-12-22T13:02:02.204Z,75.41
2022-12-22T13:07:05.543Z,75.65
2022-12-22T13:12:41.259Z,75.68
2022-12-22T13:17:50.592Z,75.47
2022-12-22T13:22:57.882Z,75.72
2022-12-22T13:28:00.697Z,75.45
2022-12-22T13:33:03.509Z,75.44
2022-12-22T13:38:06.211Z,75.51
2022-12-22T13:43:16.383Z,75.66
2022-12-22T13:48:29.425Z,75.04
2022-12-22T13:59:32.580Z,75.57
2022-12-22T14:04:36.840Z,75.24
2022-12-22T14:09:47.339Z,75.32
2022-12-22T14:14:51.793Z,75.45
2022-12-22T14:19:56.805Z,74.72
2022-12-22T14:25:02.305Z,74.93
2022-12-22T14:30:16.092Z,74.91
2022-12-22T14:35:21.598Z,74.50
2022-12-22T14:40:34.700Z,74.52
2022-12-22T14:45:37.433Z,74.20
2022-12-22T14:50:49.173Z,74.29
2022-12-22T14:55:52.309Z,73.90
2022-12-22T15:01:27.030Z,73.89
2022-12-22T15:06:29.838Z,73.69
2022-12-22T15:11:33.457Z,73.72
2022-12-22T15:16:36.042Z,73.75
2022-12-22T15:21:38.878Z,73.81
2022-12-22T15:26:42.333Z,73.81
2022-12-22T15:31:44.779Z,73.84
2022-12-22T15:36:48.024Z,73.98
2022-12-22T15:41:50.759Z,74.03
2022-12-22T15:46:57.746Z,74.06
2022-12-22T15:52:02.562Z,73.72
2022-12-22T15:57:05.296Z,74.36
2022-12-22T16:02:13.034Z,74.27
2022-12-22T16:07:16.050Z,74.27
2022-12-22T16:12:19.899Z,74.13
2022-12-22T16:17:24.910Z,74.19
2022-12-22T16:22:34.044Z,74.22
2022-12-22T16:27:36.837Z,74.01
2022-12-22T16:32:40.427Z,74.01
2022-12-22T16:37:43.442Z,74.05
2022-12-22T16:48:19.831Z,74.27
2022-12-22T16:53:22.696Z,73.88
2022-12-22T16:58:25.485Z,73.87
2022-12-22T17:03:29.269Z,73.88
2022-12-22T17:08:37.306Z,73.98
2022-12-22T17:13:40.211Z,74.01
2022-12-22T17:18:42.883Z,74.16
2022-12-22T17:23:49.009Z,74.34
2022-12-22T17:28:51.714Z,74.37
2022-12-22T17:33:54.420Z,74.21
2022-12-22T17:38:57.095Z,74.33
2022-12-22T17:43:59.878Z,73.76
2022-12-22T17:49:02.615Z,74.43
2022-12-22T17:54:05.555Z,74.30
2022-12-22T17:59:12.401Z,74.23
2022-12-22T18:04:15.701Z,74.30
2022-12-22T18:09:22.301Z,74.08
2022-12-22T18:14:25.095Z,74.58
2022-12-22T18:19:27.843Z,74.18
2022-12-22T18:24:30.633Z,74.78
2022-12-22T18:29:33.316Z,74.56
2022-12-22T18:34:36.949Z,74.60
2022-12-22T18:39:39.818Z,74.92
2022-12-22T18:44:42.479Z,74.46
2022-12-22T18:49:45.558Z,74.85
2022-12-22T18:54:48.283Z,74.61
2022-12-22T18:59:51.163Z,74.77
2022-12-22T19:04:54.685Z,74.67
2022-12-22T19:09:57.401Z,74.42
2022-12-22T19:15:04.147Z,74.78
2022-12-22T19:20:10.606Z,74.75
2022-12-22T19:25:18.280Z,75.48
2022-12-22T19:30:23.595Z,74.92
2022-12-22T19:35:26.401Z,74.48
2022-12-22T19:40:31.929Z,74.11
2022-12-22T19:45:35.934Z,74.87
2022-12-22T19:50:38.657Z,74.52
2022-12-22T19:55:44.739Z,73.74
2022-12-22T20:00:47.953Z,74.04
2022-12-22T20:05:50.908Z,73.78
2022-12-22T20:10:58.359Z,73.53
2022-12-22T20:16:01.749Z,73.56
2022-12-22T20:21:07.216Z,73.89
2022-12-22T20:26:17.266Z,73.50
2022-12-22T20:31:22.444Z,73.76
2022-12-22T20:36:32.158Z,73.61
2022-12-22T20:41:34.874Z,73.68
2022-12-22T20:46:37.693Z,73.21
2022-12-22T20:51:40.425Z,73.25
2022-12-22T20:56:45.434Z,73.83
2022-12-22T21:01:49.884Z,73.60
2022-12-22T21:06:54.798Z,73.32
2022-12-22T21:11:57.480Z,73.58
2022-12-22T21:17:00.384Z,73.04
2022-12-22T21:22:03.163Z,72.93
2022-12-22T21:27:06.032Z,73.01
2022-12-22T21:32:09.963Z,72.62
2022-12-22T21:37:18.926Z,72.97
2022-12-22T21:42:21.544Z,72.94
2022-12-22T21:47:24.349Z,72.23
2022-12-22T21:52:27.422Z,72.83
2022-12-22T21:57:30.012Z,72.48
2022-12-22T22:02:32.791Z,72.27
2022-12-22T22:07:35.379Z,72.03
2022-12-22T22:12:38.386Z,72.84
2022-12-22T22:17:41.921Z,72.32
2022-12-22T22:22:45.715Z,72.44
2022-12-22T22:27:49.231Z,72.50
2022-12-22T22:32:52.684Z,72.50
2022-12-22T22:37:56.254Z,72.09
2022-12-22T22:42:58.894Z,72.49
2022-12-22T22:48:06.289Z,71.87
2022-12-22T22:53:12.422Z,71.68
2022-12-22T22:58:15.040Z,72.66
2022-12-22T23:03:17.904Z,71.90
2022-12-22T23:08:20.732Z,72.56
2022-12-22T23:13:23.733Z,71.71
2022-12-22T23:18:26.589Z,72.08
2022-12-22T23:23:30.463Z,71.83
2022-12-22T23:28:34.353Z,71.92
2022-12-22T23:33:37.013Z,71.79
2022-12-22T23:38:39.518Z,71.74
2022-12-22T23:43:41.927Z,71.77
2022-12-22T23:48:44.890Z,71.40
2022-12-22T23:53:47.714Z,71.23
2022-12-22T23:58:54.481Z,71.47
